Terminal Aerodrome Forecast
Issued by NWS

Home | Current Version | Previous Version | Graphics & Text | Print | Product List | Glossary Off
Versions: 1 2 3 4 5 6 7 8 9 10 11 12 13 14 15 16 17 18 19 20 21 22 23 24 25 26 27 28 29 30 31 32 33 34

749
FTUS43 KDDC 061720
TAFGCK
TAF
KGCK 061720Z 0618/0718 35013KT P6SM SCT250
     FM062000 VRB03KT P6SM BKN100
     FM070000 12008KT P6SM OVC100
     FM070600 12015G25KT P6SM OVC050
     FM071200 08018G28KT P6SM OVC040
     FM071600 04017G27KT P6SM VCSH OVC020=

USA.gov is the U.S. government's official web portal to all federal, state and local government web resources and services.